sensor_id;sensor_type;location;lat;lon;timestamp;temperature;humidity
17988;DHT22;9119;50.932;5.342;2022-12-18T00:02:04;-3.80;99.90
17988;DHT22;9119;50.932;5.342;2022-12-18T00:04:29;-3.80;99.90
17988;DHT22;9119;50.932;5.342;2022-12-18T00:06:55;-3.70;99.90
17988;DHT22;9119;50.932;5.342;2022-12-18T00:09:21;-3.60;99.90
17988;DHT22;9119;50.932;5.342;2022-12-18T00:11:47;-3.60;99.90
17988;DHT22;9119;50.932;5.342;2022-12-18T00:14:13;-3.70;99.90
17988;DHT22;9119;50.932;5.342;2022-12-18T00:16:39;-3.70;99.90
17988;DHT22;9119;50.932;5.342;2022-12-18T00:19:06;-3.60;99.90
17988;DHT22;9119;50.932;5.342;2022-12-18T00:21:33;-3.60;99.90
17988;DHT22;9119;50.932;5.342;2022-12-18T00:23:59;-3.80;99.90
17988;DHT22;9119;50.932;5.342;2022-12-18T00:26:32;-3.80;99.90
17988;DHT22;9119;50.932;5.342;2022-12-18T00:29:20;-3.90;99.90
17988;DHT22;9119;50.932;5.342;2022-12-18T00:31:45;-4.00;99.90
17988;DHT22;9119;50.932;5.342;2022-12-18T00:34:12;-4.00;99.90
17988;DHT22;9119;50.932;5.342;2022-12-18T00:36:38;-4.10;99.90
17988;DHT22;9119;50.932;5.342;2022-12-18T00:39:05;-3.90;99.90
17988;DHT22;9119;50.932;5.342;2022-12-18T00:41:30;-3.90;99.90
17988;DHT22;9119;50.932;5.342;2022-12-18T00:44:16;-4.00;99.90
17988;DHT22;9119;50.932;5.342;2022-12-18T00:46:43;-4.00;99.90
17988;DHT22;9119;50.932;5.342;2022-12-18T00:49:09;-4.10;99.90
17988;DHT22;9119;50.932;5.342;2022-12-18T00:51:35;-4.10;99.90
17988;DHT22;9119;50.932;5.342;2022-12-18T00:54:01;-3.90;99.90
17988;DHT22;9119;50.932;5.342;2022-12-18T00:56:26;-4.10;99.90
17988;DHT22;9119;50.932;5.342;2022-12-18T00:58:52;-4.20;99.90
17988;DHT22;9119;50.932;5.342;2022-12-18T01:01:18;-4.20;99.90
17988;DHT22;9119;50.932;5.342;2022-12-18T01:03:44;-4.30;99.90
17988;DHT22;9119;50.932;5.342;2022-12-18T01:06:13;-4.30;99.90
17988;DHT22;9119;50.932;5.342;2022-12-18T01:08:39;-4.30;99.90
17988;DHT22;9119;50.932;5.342;2022-12-18T01:11:09;-4.30;99.90
17988;DHT22;9119;50.932;5.342;2022-12-18T01:13:35;-4.30;99.90
17988;DHT22;9119;50.932;5.342;2022-12-18T01:16:01;-4.20;99.90
17988;DHT22;9119;50.932;5.342;2022-12-18T01:18:26;-4.30;99.90
17988;DHT22;9119;50.932;5.342;2022-12-18T01:20:52;-4.30;99.90
17988;DHT22;9119;50.932;5.342;2022-12-18T01:23:18;-4.40;99.90
17988;DHT22;9119;50.932;5.342;2022-12-18T01:25:43;-4.50;99.90
17988;DHT22;9119;50.932;5.342;2022-12-18T01:28:09;-4.50;99.90
17988;DHT22;9119;50.932;5.342;2022-12-18T01:30:35;-4.50;99.90
17988;DHT22;9119;50.932;5.342;2022-12-18T01:33:01;-4.50;99.90
17988;DHT22;9119;50.932;5.342;2022-12-18T01:35:26;-4.30;99.90
17988;DHT22;9119;50.932;5.342;2022-12-18T01:37:55;-4.20;99.90
17988;DHT22;9119;50.932;5.342;2022-12-18T01:40:21;-4.20;99.90
17988;DHT22;9119;50.932;5.342;2022-12-18T01:42:53;-4.30;99.90
17988;DHT22;9119;50.932;5.342;2022-12-18T01:45:24;-4.40;99.90
17988;DHT22;9119;50.932;5.342;2022-12-18T01:47:57;-4.40;99.90
17988;DHT22;9119;50.932;5.342;2022-12-18T01:50:44;-4.40;99.90
17988;DHT22;9119;50.932;5.342;2022-12-18T01:55:50;-4.60;99.90
17988;DHT22;9119;50.932;5.342;2022-12-18T01:58:19;-4.60;99.90
17988;DHT22;9119;50.932;5.342;2022-12-18T02:00:45;-4.50;99.90
17988;DHT22;9119;50.932;5.342;2022-12-18T02:03:11;-4.50;99.90
17988;DHT22;9119;50.932;5.342;2022-12-18T02:08:43;-4.30;99.90
17988;DHT22;9119;50.932;5.342;2022-12-18T02:11:35;-4.40;99.90
17988;DHT22;9119;50.932;5.342;2022-12-18T02:16:54;-4.60;99.90
17988;DHT22;9119;50.932;5.342;2022-12-18T02:27:38;-4.50;99.90
17988;DHT22;9119;50.932;5.342;2022-12-18T02:30:06;-4.40;99.90
17988;DHT22;9119;50.932;5.342;2022-12-18T02:32:35;-4.40;99.90
17988;DHT22;9119;50.932;5.342;2022-12-18T02:35:05;-4.40;99.90
17988;DHT22;9119;50.932;5.342;2022-12-18T02:37:33;-4.30;99.90
17988;DHT22;9119;50.932;5.342;2022-12-18T02:40:00;-3.80;99.90
17988;DHT22;9119;50.932;5.342;2022-12-18T02:42:28;-4.00;99.90
17988;DHT22;9119;50.932;5.342;2022-12-18T02:44:54;-4.10;99.90
17988;DHT22;9119;50.932;5.342;2022-12-18T02:47:23;-4.30;99.90
17988;DHT22;9119;50.932;5.342;2022-12-18T02:58:04;-4.50;99.90
17988;DHT22;9119;50.932;5.342;2022-12-18T03:03:13;-4.60;99.90
17988;DHT22;9119;50.932;5.342;2022-12-18T03:05:47;-4.70;99.90
17988;DHT22;9119;50.932;5.342;2022-12-18T03:08:22;-4.80;99.90
17988;DHT22;9119;50.932;5.342;2022-12-18T03:11:27;-4.80;99.90
17988;DHT22;9119;50.932;5.342;2022-12-18T03:14:07;-4.90;99.90
17988;DHT22;9119;50.932;5.342;2022-12-18T03:16:34;-4.90;99.90
17988;DHT22;9119;50.932;5.342;2022-12-18T03:19:04;-5.00;99.90
17988;DHT22;9119;50.932;5.342;2022-12-18T03:21:45;-5.10;99.90
17988;DHT22;9119;50.932;5.342;2022-12-18T03:24:11;-5.00;99.90
17988;DHT22;9119;50.932;5.342;2022-12-18T03:26:40;-5.00;99.90
17988;DHT22;9119;50.932;5.342;2022-12-18T03:29:12;-5.00;99.90
17988;DHT22;9119;50.932;5.342;2022-12-18T03:31:41;-4.90;99.90
17988;DHT22;9119;50.932;5.342;2022-12-18T03:34:16;-5.00;99.90
17988;DHT22;9119;50.932;5.342;2022-12-18T03:36:43;-5.00;99.90
17988;DHT22;9119;50.932;5.342;2022-12-18T03:39:09;-5.10;99.90
17988;DHT22;9119;50.932;5.342;2022-12-18T03:41:43;-4.90;99.90
17988;DHT22;9119;50.932;5.342;2022-12-18T03:44:20;-4.70;99.90
17988;DHT22;9119;50.932;5.342;2022-12-18T03:49:33;-5.00;99.90
17988;DHT22;9119;50.932;5.342;2022-12-18T03:52:08;-5.00;99.90
17988;DHT22;9119;50.932;5.342;2022-12-18T03:54:35;-5.10;99.90
17988;DHT22;9119;50.932;5.342;2022-12-18T03:57:08;-5.10;99.90
17988;DHT22;9119;50.932;5.342;2022-12-18T03:59:36;-5.00;99.90
17988;DHT22;9119;50.932;5.342;2022-12-18T04:02:04;-5.00;99.90
17988;DHT22;9119;50.932;5.342;2022-12-18T04:04:31;-4.90;99.90
17988;DHT22;9119;50.932;5.342;2022-12-18T04:06:58;-4.90;99.90
17988;DHT22;9119;50.932;5.342;2022-12-18T04:09:24;-4.90;99.90
17988;DHT22;9119;50.932;5.342;2022-12-18T04:11:51;-4.90;99.90
17988;DHT22;9119;50.932;5.342;2022-12-18T04:14:17;-4.90;99.90
17988;DHT22;9119;50.932;5.342;2022-12-18T04:16:43;-4.90;99.90
17988;DHT22;9119;50.932;5.342;2022-12-18T04:19:08;-4.90;99.90
17988;DHT22;9119;50.932;5.342;2022-12-18T04:21:34;-4.90;99.90
17988;DHT22;9119;50.932;5.342;2022-12-18T04:24:00;-4.80;99.90
17988;DHT22;9119;50.932;5.342;2022-12-18T04:26:25;-4.80;99.90
17988;DHT22;9119;50.932;5.342;2022-12-18T04:28:51;-4.90;99.90
17988;DHT22;9119;50.932;5.342;2022-12-18T04:31:16;-4.90;99.90
17988;DHT22;9119;50.932;5.342;2022-12-18T04:33:42;-4.90;99.90
17988;DHT22;9119;50.932;5.342;2022-12-18T04:36:08;-5.00;99.90
17988;DHT22;9119;50.932;5.342;2022-12-18T04:38:33;-4.90;99.90
17988;DHT22;9119;50.932;5.342;2022-12-18T04:40:59;-4.90;99.90
17988;DHT22;9119;50.932;5.342;2022-12-18T04:43:25;-4.90;99.90
17988;DHT22;9119;50.932;5.342;2022-12-18T04:45:50;-4.90;99.90
17988;DHT22;9119;50.932;5.342;2022-12-18T04:48:16;-5.00;99.90
17988;DHT22;9119;50.932;5.342;2022-12-18T04:50:41;-5.10;99.90
17988;DHT22;9119;50.932;5.342;2022-12-18T04:53:07;-5.10;99.90
17988;DHT22;9119;50.932;5.342;2022-12-18T04:55:33;-5.00;99.90
17988;DHT22;9119;50.932;5.342;2022-12-18T04:57:58;-5.10;99.90
17988;DHT22;9119;50.932;5.342;2022-12-18T05:00:24;-5.20;99.90
17988;DHT22;9119;50.932;5.342;2022-12-18T05:02:50;-5.20;99.90
17988;DHT22;9119;50.932;5.342;2022-12-18T05:05:15;-5.30;99.90
17988;DHT22;9119;50.932;5.342;2022-12-18T05:07:41;-5.30;99.90
17988;DHT22;9119;50.932;5.342;2022-12-18T05:10:07;-5.20;99.90
17988;DHT22;9119;50.932;5.342;2022-12-18T05:12:33;-5.30;99.90
17988;DHT22;9119;50.932;5.342;2022-12-18T05:14:59;-5.30;99.90
17988;DHT22;9119;50.932;5.342;2022-12-18T05:17:25;-5.20;99.90
17988;DHT22;9119;50.932;5.342;2022-12-18T05:19:50;-5.20;99.90
17988;DHT22;9119;50.932;5.342;2022-12-18T05:22:16;-5.20;99.90
17988;DHT22;9119;50.932;5.342;2022-12-18T05:24:41;-5.30;99.90
17988;DHT22;9119;50.932;5.342;2022-12-18T05:27:07;-5.30;99.90
17988;DHT22;9119;50.932;5.342;2022-12-18T05:29:33;-5.30;99.90
17988;DHT22;9119;50.932;5.342;2022-12-18T05:31:58;-5.30;99.90
17988;DHT22;9119;50.932;5.342;2022-12-18T05:34:24;-5.40;99.90
17988;DHT22;9119;50.932;5.342;2022-12-18T05:36:49;-5.40;99.90
17988;DHT22;9119;50.932;5.342;2022-12-18T05:39:15;-5.40;99.90
17988;DHT22;9119;50.932;5.342;2022-12-18T05:41:41;-5.40;99.90
17988;DHT22;9119;50.932;5.342;2022-12-18T05:44:07;-5.40;99.90
17988;DHT22;9119;50.932;5.342;2022-12-18T05:46:32;-5.50;99.90
17988;DHT22;9119;50.932;5.342;2022-12-18T05:49:01;-5.60;99.90
17988;DHT22;9119;50.932;5.342;2022-12-18T05:51:27;-5.60;99.90
17988;DHT22;9119;50.932;5.342;2022-12-18T05:53:53;-5.60;99.90
17988;DHT22;9119;50.932;5.342;2022-12-18T05:56:22;-5.60;99.90
17988;DHT22;9119;50.932;5.342;2022-12-18T05:58:51;-5.60;99.90
17988;DHT22;9119;50.932;5.342;2022-12-18T06:01:21;-5.60;99.90
17988;DHT22;9119;50.932;5.342;2022-12-18T06:03:47;-5.50;99.90
17988;DHT22;9119;50.932;5.342;2022-12-18T06:06:21;-5.50;99.90
17988;DHT22;9119;50.932;5.342;2022-12-18T06:08:48;-5.50;99.90
17988;DHT22;9119;50.932;5.342;2022-12-18T06:11:17;-5.60;99.90
17988;DHT22;9119;50.932;5.342;2022-12-18T06:13:43;-5.70;99.90
17988;DHT22;9119;50.932;5.342;2022-12-18T06:16:08;-5.60;99.90
17988;DHT22;9119;50.932;5.342;2022-12-18T06:18:34;-5.60;99.90
17988;DHT22;9119;50.932;5.342;2022-12-18T06:21:00;-5.70;99.90
17988;DHT22;9119;50.932;5.342;2022-12-18T06:23:26;-5.70;99.90
17988;DHT22;9119;50.932;5.342;2022-12-18T06:25:52;-5.70;99.90
17988;DHT22;9119;50.932;5.342;2022-12-18T06:28:18;-5.70;99.90
17988;DHT22;9119;50.932;5.342;2022-12-18T06:30:44;-5.40;99.90
17988;DHT22;9119;50.932;5.342;2022-12-18T06:33:10;-5.70;99.90
17988;DHT22;9119;50.932;5.342;2022-12-18T06:35:36;-5.80;99.90
17988;DHT22;9119;50.932;5.342;2022-12-18T06:38:02;-5.70;99.90
17988;DHT22;9119;50.932;5.342;2022-12-18T06:40:28;-5.80;99.90
17988;DHT22;9119;50.932;5.342;2022-12-18T06:42:54;-5.90;99.90
17988;DHT22;9119;50.932;5.342;2022-12-18T06:45:19;-5.90;99.90
17988;DHT22;9119;50.932;5.342;2022-12-18T06:47:45;-5.90;99.90
17988;DHT22;9119;50.932;5.342;2022-12-18T06:50:12;-6.10;99.90
17988;DHT22;9119;50.932;5.342;2022-12-18T06:52:38;-5.90;99.90
17988;DHT22;9119;50.932;5.342;2022-12-18T06:55:06;-6.00;99.90
17988;DHT22;9119;50.932;5.342;2022-12-18T06:57:33;-5.90;99.90
17988;DHT22;9119;50.932;5.342;2022-12-18T06:59:59;-5.90;99.90
17988;DHT22;9119;50.932;5.342;2022-12-18T07:02:24;-6.00;99.90
17988;DHT22;9119;50.932;5.342;2022-12-18T07:04:50;-6.00;99.90
17988;DHT22;9119;50.932;5.342;2022-12-18T07:07:16;-6.00;99.90
17988;DHT22;9119;50.932;5.342;2022-12-18T07:09:41;-6.00;99.90
17988;DHT22;9119;50.932;5.342;2022-12-18T07:12:07;-6.10;99.90
17988;DHT22;9119;50.932;5.342;2022-12-18T07:14:33;-6.00;99.90
17988;DHT22;9119;50.932;5.342;2022-12-18T07:16:59;-6.00;99.90
17988;DHT22;9119;50.932;5.342;2022-12-18T07:19:25;-6.00;99.90
17988;DHT22;9119;50.932;5.342;2022-12-18T07:21:52;-5.90;99.90
17988;DHT22;9119;50.932;5.342;2022-12-18T07:24:17;-5.90;99.90
17988;DHT22;9119;50.932;5.342;2022-12-18T07:26:46;-6.00;99.90
17988;DHT22;9119;50.932;5.342;2022-12-18T07:29:12;-6.10;99.90
17988;DHT22;9119;50.932;5.342;2022-12-18T07:31:37;-6.10;99.90
17988;DHT22;9119;50.932;5.342;2022-12-18T07:34:03;-6.10;99.90
17988;DHT22;9119;50.932;5.342;2022-12-18T07:36:29;-6.20;99.90
17988;DHT22;9119;50.932;5.342;2022-12-18T07:38:54;-6.10;99.90
17988;DHT22;9119;50.932;5.342;2022-12-18T07:41:20;-6.00;99.90
17988;DHT22;9119;50.932;5.342;2022-12-18T07:43:46;-6.00;99.90
17988;DHT22;9119;50.932;5.342;2022-12-18T07:46:13;-6.00;99.90
17988;DHT22;9119;50.932;5.342;2022-12-18T07:48:43;-5.90;99.90
17988;DHT22;9119;50.932;5.342;2022-12-18T07:51:09;-5.90;99.90
17988;DHT22;9119;50.932;5.342;2022-12-18T07:53:35;-5.90;99.90
17988;DHT22;9119;50.932;5.342;2022-12-18T07:56:03;-5.80;99.90
17988;DHT22;9119;50.932;5.342;2022-12-18T07:58:30;-5.90;99.90
17988;DHT22;9119;50.932;5.342;2022-12-18T08:01:06;-5.80;99.90
17988;DHT22;9119;50.932;5.342;2022-12-18T08:03:32;-5.70;99.90
17988;DHT22;9119;50.932;5.342;2022-12-18T08:05:59;-5.70;99.90
17988;DHT22;9119;50.932;5.342;2022-12-18T08:08:25;-5.70;99.90
17988;DHT22;9119;50.932;5.342;2022-12-18T08:10:51;-5.70;99.90
17988;DHT22;9119;50.932;5.342;2022-12-18T08:13:16;-5.60;99.90
17988;DHT22;9119;50.932;5.342;2022-12-18T08:15:42;-5.50;99.90
17988;DHT22;9119;50.932;5.342;2022-12-18T08:18:08;-5.40;99.90
17988;DHT22;9119;50.932;5.342;2022-12-18T08:20:33;-5.40;99.90
17988;DHT22;9119;50.932;5.342;2022-12-18T08:23:01;-5.40;99.90
17988;DHT22;9119;50.932;5.342;2022-12-18T08:25:27;-5.40;99.90
17988;DHT22;9119;50.932;5.342;2022-12-18T08:27:53;-5.30;99.90
17988;DHT22;9119;50.932;5.342;2022-12-18T08:30:19;-5.30;99.90
17988;DHT22;9119;50.932;5.342;2022-12-18T08:32:44;-5.30;99.90
17988;DHT22;9119;50.932;5.342;2022-12-18T08:35:10;-5.30;99.90
17988;DHT22;9119;50.932;5.342;2022-12-18T08:37:38;-5.30;99.90
17988;DHT22;9119;50.932;5.342;2022-12-18T08:40:04;-5.20;99.90
17988;DHT22;9119;50.932;5.342;2022-12-18T08:42:30;-5.20;99.90
17988;DHT22;9119;50.932;5.342;2022-12-18T08:45:14;-5.20;99.90
17988;DHT22;9119;50.932;5.342;2022-12-18T08:47:39;-4.90;99.90
17988;DHT22;9119;50.932;5.342;2022-12-18T08:50:05;-5.10;99.90
17988;DHT22;9119;50.932;5.342;2022-12-18T08:52:32;-5.10;99.90
17988;DHT22;9119;50.932;5.342;2022-12-18T08:54:58;-5.00;99.90
17988;DHT22;9119;50.932;5.342;2022-12-18T08:57:23;-4.80;99.90
17988;DHT22;9119;50.932;5.342;2022-12-18T08:59:49;-4.90;99.90
17988;DHT22;9119;50.932;5.342;2022-12-18T09:02:15;-4.90;99.90
17988;DHT22;9119;50.932;5.342;2022-12-18T09:04:40;-4.80;99.90
17988;DHT22;9119;50.932;5.342;2022-12-18T09:07:06;-4.80;99.90
17988;DHT22;9119;50.932;5.342;2022-12-18T09:09:32;-4.70;99.90
17988;DHT22;9119;50.932;5.342;2022-12-18T09:11:58;-4.60;99.90
17988;DHT22;9119;50.932;5.342;2022-12-18T09:14:23;-4.60;99.90
17988;DHT22;9119;50.932;5.342;2022-12-18T09:16:49;-4.60;99.90
17988;DHT22;9119;50.932;5.342;2022-12-18T09:19:15;-4.50;99.90
17988;DHT22;9119;50.932;5.342;2022-12-18T09:21:40;-4.50;99.90
17988;DHT22;9119;50.932;5.342;2022-12-18T09:24:08;-4.40;99.90
17988;DHT22;9119;50.932;5.342;2022-12-18T09:26:37;-4.40;99.90
17988;DHT22;9119;50.932;5.342;2022-12-18T09:29:07;-4.30;99.90
17988;DHT22;9119;50.932;5.342;2022-12-18T09:31:33;-4.30;99.90
17988;DHT22;9119;50.932;5.342;2022-12-18T09:33:59;-4.30;99.90
17988;DHT22;9119;50.932;5.342;2022-12-18T09:36:25;-4.30;99.90
17988;DHT22;9119;50.932;5.342;2022-12-18T09:38:50;-4.20;99.90
17988;DHT22;9119;50.932;5.342;2022-12-18T09:46:44;-3.90;99.90
17988;DHT22;9119;50.932;5.342;2022-12-18T09:49:14;-3.80;99.90
17988;DHT22;9119;50.932;5.342;2022-12-18T09:51:49;-3.80;99.90
17988;DHT22;9119;50.932;5.342;2022-12-18T09:54:24;-3.70;99.90
17988;DHT22;9119;50.932;5.342;2022-12-18T09:56:51;-3.70;99.90
17988;DHT22;9119;50.932;5.342;2022-12-18T09:59:38;-3.50;99.90
17988;DHT22;9119;50.932;5.342;2022-12-18T10:02:19;-3.50;99.90
17988;DHT22;9119;50.932;5.342;2022-12-18T10:05:01;-3.40;99.90
17988;DHT22;9119;50.932;5.342;2022-12-18T10:13:15;-3.20;99.90
17988;DHT22;9119;50.932;5.342;2022-12-18T10:15:56;-3.10;99.90
17988;DHT22;9119;50.932;5.342;2022-12-18T10:21:30;-3.00;99.90
17988;DHT22;9119;50.932;5.342;2022-12-18T10:24:29;-2.70;99.90
17988;DHT22;9119;50.932;5.342;2022-12-18T10:27:12;-3.00;99.90
17988;DHT22;9119;50.932;5.342;2022-12-18T10:29:39;-2.90;99.90
17988;DHT22;9119;50.932;5.342;2022-12-18T10:32:04;-2.90;99.90
17988;DHT22;9119;50.932;5.342;2022-12-18T10:34:31;-2.80;99.90
17988;DHT22;9119;50.932;5.342;2022-12-18T10:36:56;-2.80;99.90
17988;DHT22;9119;50.932;5.342;2022-12-18T10:39:24;-2.80;99.90
17988;DHT22;9119;50.932;5.342;2022-12-18T10:41:51;-2.80;99.90
17988;DHT22;9119;50.932;5.342;2022-12-18T10:44:20;-2.80;99.90
17988;DHT22;9119;50.932;5.342;2022-12-18T10:46:53;-2.70;99.90
17988;DHT22;9119;50.932;5.342;2022-12-18T10:49:27;-2.50;99.90
17988;DHT22;9119;50.932;5.342;2022-12-18T10:52:23;-2.50;99.90
17988;DHT22;9119;50.932;5.342;2022-12-18T10:54:55;-2.50;99.90
17988;DHT22;9119;50.932;5.342;2022-12-18T10:57:35;-2.60;99.90
17988;DHT22;9119;50.932;5.342;2022-12-18T11:02:47;-2.50;99.90
17988;DHT22;9119;50.932;5.342;2022-12-18T11:05:42;-2.50;99.90
17988;DHT22;9119;50.932;5.342;2022-12-18T11:08:20;-2.40;99.90
17988;DHT22;9119;50.932;5.342;2022-12-18T11:10:48;-2.40;99.90
17988;DHT22;9119;50.932;5.342;2022-12-18T11:13:24;-2.30;99.90
17988;DHT22;9119;50.932;5.342;2022-12-18T11:15:51;-2.20;99.90
17988;DHT22;9119;50.932;5.342;2022-12-18T11:18:32;-2.20;99.90
17988;DHT22;9119;50.932;5.342;2022-12-18T11:21:10;-2.10;99.90
17988;DHT22;9119;50.932;5.342;2022-12-18T11:23:43;-1.90;99.90
17988;DHT22;9119;50.932;5.342;2022-12-18T11:26:11;-2.00;99.90
17988;DHT22;9119;50.932;5.342;2022-12-18T11:28:40;-1.90;99.90
17988;DHT22;9119;50.932;5.342;2022-12-18T11:34:06;-1.80;99.90
17988;DHT22;9119;50.932;5.342;2022-12-18T11:36:44;-1.60;99.90
17988;DHT22;9119;50.932;5.342;2022-12-18T11:39:40;-1.60;99.90
17988;DHT22;9119;50.932;5.342;2022-12-18T11:42:18;-1.80;99.90
17988;DHT22;9119;50.932;5.342;2022-12-18T11:44:59;-1.40;99.90
17988;DHT22;9119;50.932;5.342;2022-12-18T11:50:24;-1.30;99.90
17988;DHT22;9119;50.932;5.342;2022-12-18T11:52:50;-1.30;99.90
17988;DHT22;9119;50.932;5.342;2022-12-18T11:58:07;-1.00;99.90
17988;DHT22;9119;50.932;5.342;2022-12-18T12:00:41;-1.10;99.90
17988;DHT22;9119;50.932;5.342;2022-12-18T12:11:54;-0.90;99.90
17988;DHT22;9119;50.932;5.342;2022-12-18T12:20:06;-0.70;99.90
17988;DHT22;9119;50.932;5.342;2022-12-18T12:23:06;-0.70;99.90
17988;DHT22;9119;50.932;5.342;2022-12-18T12:25:46;-0.80;99.90
17988;DHT22;9119;50.932;5.342;2022-12-18T12:39:39;-0.60;99.90
17988;DHT22;9119;50.932;5.342;2022-12-18T12:42:18;-0.50;99.90
17988;DHT22;9119;50.932;5.342;2022-12-18T12:45:06;-0.50;99.90
17988;DHT22;9119;50.932;5.342;2022-12-18T12:47:42;-0.50;99.90
17988;DHT22;9119;50.932;5.342;2022-12-18T12:50:15;-0.50;99.90
17988;DHT22;9119;50.932;5.342;2022-12-18T12:52:47;-0.60;99.90
17988;DHT22;9119;50.932;5.342;2022-12-18T12:55:34;-0.50;99.90
17988;DHT22;9119;50.932;5.342;2022-12-18T13:01:01;-0.40;99.90
17988;DHT22;9119;50.932;5.342;2022-12-18T13:06:14;-0.50;99.90
17988;DHT22;9119;50.932;5.342;2022-12-18T13:09:15;-0.40;99.90
17988;DHT22;9119;50.932;5.342;2022-12-18T13:11:41;-0.40;99.90
17988;DHT22;9119;50.932;5.342;2022-12-18T13:19:39;-0.20;99.90
17988;DHT22;9119;50.932;5.342;2022-12-18T13:22:23;-0.30;99.90
17988;DHT22;9119;50.932;5.342;2022-12-18T13:24:49;-0.30;99.90
17988;DHT22;9119;50.932;5.342;2022-12-18T13:38:47;-0.20;99.90
17988;DHT22;9119;50.932;5.342;2022-12-18T13:41:23;-0.20;99.90
17988;DHT22;9119;50.932;5.342;2022-12-18T13:44:09;-0.20;99.90
17988;DHT22;9119;50.932;5.342;2022-12-18T13:51:40;0.00;99.90
17988;DHT22;9119;50.932;5.342;2022-12-18T13:54:19;-0.10;99.90
17988;DHT22;9119;50.932;5.342;2022-12-18T13:56:47;-0.10;99.90
17988;DHT22;9119;50.932;5.342;2022-12-18T13:59:21;-0.10;99.90
17988;DHT22;9119;50.932;5.342;2022-12-18T14:01:56;0.00;99.90
17988;DHT22;9119;50.932;5.342;2022-12-18T14:04:31;-0.10;99.90
17988;DHT22;9119;50.932;5.342;2022-12-18T14:09:50;0.00;99.90
17988;DHT22;9119;50.932;5.342;2022-12-18T14:12:35;0.00;99.90
17988;DHT22;9119;50.932;5.342;2022-12-18T14:20:43;0.10;99.90
17988;DHT22;9119;50.932;5.342;2022-12-18T14:25:52;0.00;99.90
17988;DHT22;9119;50.932;5.342;2022-12-18T14:28:18;0.20;99.90
17988;DHT22;9119;50.932;5.342;2022-12-18T14:30:45;0.20;99.90
17988;DHT22;9119;50.932;5.342;2022-12-18T14:33:17;0.10;99.90
17988;DHT22;9119;50.932;5.342;2022-12-18T14:36:05;0.10;99.90
17988;DHT22;9119;50.932;5.342;2022-12-18T14:38:39;0.10;99.90
17988;DHT22;9119;50.932;5.342;2022-12-18T14:43:36;0.10;99.90
17988;DHT22;9119;50.932;5.342;2022-12-18T14:46:04;0.20;99.90
17988;DHT22;9119;50.932;5.342;2022-12-18T14:48:39;0.20;99.90
17988;DHT22;9119;50.932;5.342;2022-12-18T14:51:20;0.20;99.90
17988;DHT22;9119;50.932;5.342;2022-12-18T14:54:01;0.30;99.90
17988;DHT22;9119;50.932;5.342;2022-12-18T14:57:03;0.20;99.90
17988;DHT22;9119;50.932;5.342;2022-12-18T14:59:30;0.20;99.90
17988;DHT22;9119;50.932;5.342;2022-12-18T15:04:41;0.30;99.90
17988;DHT22;9119;50.932;5.342;2022-12-18T15:09:47;0.30;99.90
17988;DHT22;9119;50.932;5.342;2022-12-18T15:20:45;0.20;99.90
17988;DHT22;9119;50.932;5.342;2022-12-18T15:23:45;0.20;99.90
17988;DHT22;9119;50.932;5.342;2022-12-18T15:26:13;0.20;99.90
17988;DHT22;9119;50.932;5.342;2022-12-18T15:36:25;0.20;99.90
17988;DHT22;9119;50.932;5.342;2022-12-18T15:38:52;0.30;99.90
17988;DHT22;9119;50.932;5.342;2022-12-18T15:41:21;0.30;99.90
17988;DHT22;9119;50.932;5.342;2022-12-18T15:43:48;0.30;99.90
17988;DHT22;9119;50.932;5.342;2022-12-18T15:46:22;0.60;99.90
17988;DHT22;9119;50.932;5.342;2022-12-18T15:48:52;0.40;99.90
17988;DHT22;9119;50.932;5.342;2022-12-18T15:51:26;0.30;99.90
17988;DHT22;9119;50.932;5.342;2022-12-18T15:53:56;0.50;99.90
17988;DHT22;9119;50.932;5.342;2022-12-18T15:56:22;0.40;99.90
17988;DHT22;9119;50.932;5.342;2022-12-18T15:59:15;0.30;99.90
17988;DHT22;9119;50.932;5.342;2022-12-18T16:01:41;0.40;99.90
17988;DHT22;9119;50.932;5.342;2022-12-18T16:04:10;0.40;99.90
17988;DHT22;9119;50.932;5.342;2022-12-18T16:06:36;0.40;99.90
17988;DHT22;9119;50.932;5.342;2022-12-18T16:09:02;0.40;99.90
17988;DHT22;9119;50.932;5.342;2022-12-18T16:11:29;0.40;99.90
17988;DHT22;9119;50.932;5.342;2022-12-18T16:14:22;0.40;99.90
17988;DHT22;9119;50.932;5.342;2022-12-18T16:16:51;0.50;99.90
17988;DHT22;9119;50.932;5.342;2022-12-18T16:19:17;0.50;99.90
17988;DHT22;9119;50.932;5.342;2022-12-18T16:21:44;0.50;99.90
17988;DHT22;9119;50.932;5.342;2022-12-18T16:26:41;0.50;99.90
17988;DHT22;9119;50.932;5.342;2022-12-18T16:29:08;0.50;99.90
17988;DHT22;9119;50.932;5.342;2022-12-18T16:31:33;0.50;99.90
17988;DHT22;9119;50.932;5.342;2022-12-18T16:34:24;0.50;99.90
17988;DHT22;9119;50.932;5.342;2022-12-18T16:36:54;0.50;99.90
17988;DHT22;9119;50.932;5.342;2022-12-18T16:39:20;0.50;99.90
17988;DHT22;9119;50.932;5.342;2022-12-18T16:41:46;0.50;99.90
17988;DHT22;9119;50.932;5.342;2022-12-18T16:44:13;0.50;99.90
17988;DHT22;9119;50.932;5.342;2022-12-18T16:46:40;0.50;99.90
17988;DHT22;9119;50.932;5.342;2022-12-18T16:49:08;0.50;99.90
17988;DHT22;9119;50.932;5.342;2022-12-18T16:51:34;0.50;99.90
17988;DHT22;9119;50.932;5.342;2022-12-18T16:54:00;0.60;99.90
17988;DHT22;9119;50.932;5.342;2022-12-18T16:56:26;0.60;99.90
17988;DHT22;9119;50.932;5.342;2022-12-18T16:58:57;0.60;99.90
17988;DHT22;9119;50.932;5.342;2022-12-18T17:01:24;0.60;99.90
17988;DHT22;9119;50.932;5.342;2022-12-18T17:03:55;0.60;99.90
17988;DHT22;9119;50.932;5.342;2022-12-18T17:06:23;0.60;99.90
17988;DHT22;9119;50.932;5.342;2022-12-18T17:08:55;0.60;99.90
17988;DHT22;9119;50.932;5.342;2022-12-18T17:11:21;0.60;99.90
17988;DHT22;9119;50.932;5.342;2022-12-18T17:13:48;0.70;99.90
17988;DHT22;9119;50.932;5.342;2022-12-18T17:16:13;0.60;99.90
17988;DHT22;9119;50.932;5.342;2022-12-18T17:18:39;0.70;99.90
17988;DHT22;9119;50.932;5.342;2022-12-18T17:21:05;0.80;99.90
17988;DHT22;9119;50.932;5.342;2022-12-18T17:23:34;0.60;99.90
17988;DHT22;9119;50.932;5.342;2022-12-18T17:26:00;0.60;99.90
17988;DHT22;9119;50.932;5.342;2022-12-18T17:28:27;0.60;99.90
17988;DHT22;9119;50.932;5.342;2022-12-18T17:30:54;0.60;99.90
17988;DHT22;9119;50.932;5.342;2022-12-18T17:33:21;0.60;99.90
17988;DHT22;9119;50.932;5.342;2022-12-18T17:35:47;0.80;99.90
17988;DHT22;9119;50.932;5.342;2022-12-18T17:38:12;0.70;99.90
17988;DHT22;9119;50.932;5.342;2022-12-18T17:40:38;0.70;99.90
17988;DHT22;9119;50.932;5.342;2022-12-18T17:43:08;0.70;99.90
17988;DHT22;9119;50.932;5.342;2022-12-18T17:45:37;0.70;99.90
17988;DHT22;9119;50.932;5.342;2022-12-18T17:48:07;0.70;99.90
17988;DHT22;9119;50.932;5.342;2022-12-18T17:50:33;0.70;99.90
17988;DHT22;9119;50.932;5.342;2022-12-18T17:53:00;0.70;99.90
17988;DHT22;9119;50.932;5.342;2022-12-18T17:55:28;0.70;99.90
17988;DHT22;9119;50.932;5.342;2022-12-18T17:57:54;1.00;99.90
17988;DHT22;9119;50.932;5.342;2022-12-18T18:00:22;0.70;99.90
17988;DHT22;9119;50.932;5.342;2022-12-18T18:02:48;0.90;99.90
17988;DHT22;9119;50.932;5.342;2022-12-18T18:05:14;0.70;99.90
17988;DHT22;9119;50.932;5.342;2022-12-18T18:07:39;0.80;99.90
17988;DHT22;9119;50.932;5.342;2022-12-18T18:10:06;0.80;99.90
17988;DHT22;9119;50.932;5.342;2022-12-18T18:12:32;0.80;99.90
17988;DHT22;9119;50.932;5.342;2022-12-18T18:15:16;0.80;99.90
17988;DHT22;9119;50.932;5.342;2022-12-18T18:17:42;0.80;99.90
17988;DHT22;9119;50.932;5.342;2022-12-18T18:20:08;0.80;99.90
17988;DHT22;9119;50.932;5.342;2022-12-18T18:22:33;0.80;99.90
17988;DHT22;9119;50.932;5.342;2022-12-18T18:24:59;0.90;99.90
17988;DHT22;9119;50.932;5.342;2022-12-18T18:27:26;1.00;99.90
17988;DHT22;9119;50.932;5.342;2022-12-18T18:29:52;1.20;99.90
17988;DHT22;9119;50.932;5.342;2022-12-18T18:32:17;1.00;99.90